Time;durP1;ratioP1;P1;durP2;ratioP2;P2;SDS_P1;SDS_P2;PMS_P1;PMS_P2;Temp;Humidity;BMP_temperature;BMP_pressure;BME280_temperature;BME280_humidity;BME280_pressure;Samples;Min_cycle;Max_cycle;Signal;HPM_P1;HPM_P2
2021/06/03 00:01:42;;;;;;;14.25;5.68;;;18.50;99.90;;;;;;4163711;28;20485;-75
2021/06/03 00:03:43;;;;;;;7.32;4.95;;;18.50;99.90;;;;;;4164050;28;20087;-75
2021/06/03 00:05:51;;;;;;;5.88;4.50;;;18.40;99.90;;;;;;4163134;28;20414;-76
2021/06/03 00:07:54;;;;;;;5.40;4.75;;;18.30;99.90;;;;;;4163735;28;20029;-76
2021/06/03 00:09:54;;;;;;;5.53;4.50;;;18.20;99.90;;;;;;4146229;28;20057;-75
2021/06/03 00:11:55;;;;;;;5.88;5.28;;;18.20;99.90;;;;;;4159690;28;20045;-76
2021/06/03 00:13:56;;;;;;;4.65;4.20;;;18.10;99.90;;;;;;4176387;28;20025;-75
2021/06/03 00:16:00;;;;;;;9.32;5.85;;;18.00;99.90;;;;;;4160096;28;20026;-76
2021/06/03 00:18:03;;;;;;;5.80;4.90;;;18.00;99.90;;;;;;4159840;28;20021;-76
2021/06/03 00:20:15;;;;;;;7.63;6.13;;;17.90;99.90;;;;;;4161185;28;20044;-75
2021/06/03 00:22:16;;;;;;;6.00;5.35;;;17.90;99.90;;;;;;4155945;28;20489;-77
2021/06/03 00:24:17;;;;;;;9.20;5.30;;;17.90;99.90;;;;;;4162180;28;20021;-76
2021/06/03 00:26:18;;;;;;;7.38;5.40;;;17.90;99.90;;;;;;4163830;28;20159;-75
2021/06/03 00:28:18;;;;;;;6.95;5.15;;;17.80;99.90;;;;;;4162183;28;20038;-76
2021/06/03 00:30:22;;;;;;;6.53;5.70;;;17.70;99.90;;;;;;4161381;28;20112;-75
2021/06/03 00:32:23;;;;;;;7.57;5.45;;;17.70;99.90;;;;;;4159708;28;20030;-74
2021/06/03 00:34:24;;;;;;;6.40;5.50;;;17.60;99.90;;;;;;4158381;28;20057;-75
2021/06/03 00:36:24;;;;;;;7.38;6.75;;;17.60;99.90;;;;;;4163214;28;20060;-75
2021/06/03 00:38:25;;;;;;;12.48;6.10;;;17.60;99.90;;;;;;4164521;28;20026;-76
2021/06/03 00:40:26;;;;;;;10.50;6.30;;;17.50;99.90;;;;;;4160340;28;20456;-75
2021/06/03 00:42:28;;;;;;;7.13;6.15;;;17.50;99.90;;;;;;4164756;28;20017;-76
2021/06/03 00:44:29;;;;;;;7.95;5.57;;;17.40;99.90;;;;;;4162949;28;20044;-75
2021/06/03 00:46:30;;;;;;;6.47;5.80;;;17.40;99.90;;;;;;4161028;28;20061;-75
2021/06/03 00:48:32;;;;;;;10.63;6.68;;;17.50;99.90;;;;;;4165073;28;20022;-76
2021/06/03 00:50:35;;;;;;;8.30;6.10;;;17.50;99.90;;;;;;4156672;28;20120;-75
2021/06/03 00:52:35;;;;;;;9.85;6.43;;;17.60;99.90;;;;;;4154178;28;20095;-75
2021/06/03 00:54:36;;;;;;;7.82;6.60;;;17.60;99.90;;;;;;4163165;28;20025;-74
2021/06/03 00:56:37;;;;;;;9.35;6.13;;;17.50;99.90;;;;;;4163320;28;20029;-75
2021/06/03 00:58:38;;;;;;;8.85;7.20;;;17.50;99.90;;;;;;4163638;28;20165;-75
2021/06/03 01:00:39;;;;;;;7.00;6.30;;;17.40;99.90;;;;;;4162380;28;20542;-75
2021/06/03 01:02:39;;;;;;;7.43;6.55;;;17.50;99.90;;;;;;4162144;28;20071;-75
2021/06/03 01:04:40;;;;;;;7.82;5.90;;;17.70;99.90;;;;;;4162462;28;20042;-74
2021/06/03 01:06:41;;;;;;;9.68;6.13;;;17.80;99.90;;;;;;4162592;28;20033;-75
2021/06/03 01:09:02;;;;;;;6.53;5.93;;;18.00;99.90;;;;;;4164152;28;20030;-75
2021/06/03 01:11:21;;;;;;;6.78;6.07;;;18.20;99.90;;;;;;4151859;28;20095;-76
2021/06/03 01:13:42;;;;;;;7.10;6.13;;;18.30;99.90;;;;;;4163497;28;20541;-76
2021/06/03 01:15:46;;;;;;;8.38;7.20;;;18.30;99.90;;;;;;4178903;28;20029;-75
2021/06/03 01:17:47;;;;;;;8.85;6.35;;;18.30;99.90;;;;;;4178576;28;20045;-76
2021/06/03 01:19:50;;;;;;;7.72;7.03;;;18.20;99.90;;;;;;4162585;28;20126;-76
2021/06/03 01:21:52;;;;;;;;;;;18.30;99.90;;;;;;4163847;28;20534;-76
2021/06/03 01:24:17;;;;;;;10.05;6.97;;;18.20;99.90;;;;;;4178807;28;20364;-76
2021/06/03 01:26:18;;;;;;;8.60;6.65;;;18.10;99.90;;;;;;4166558;28;20029;-76
2021/06/03 01:28:20;;;;;;;11.98;7.45;;;18.10;99.90;;;;;;4162697;28;20067;-76
2021/06/03 01:30:26;;;;;;;7.88;6.97;;;18.00;99.90;;;;;;4164000;28;20029;-76
2021/06/03 01:32:29;;;;;;;7.20;6.50;;;17.90;99.90;;;;;;4163750;28;20037;-76
2021/06/03 01:34:31;;;;;;;8.00;6.15;;;17.90;99.90;;;;;;4163832;28;20022;-76
2021/06/03 01:36:32;;;;;;;9.68;6.25;;;17.80;99.90;;;;;;4162581;28;20029;-76
2021/06/03 01:38:36;;;;;;;9.68;6.60;;;17.70;99.90;;;;;;4163519;28;20117;-76
2021/06/03 01:40:40;;;;;;;10.00;6.55;;;17.60;99.90;;;;;;4163348;28;20037;-76
2021/06/03 01:42:43;;;;;;;7.95;6.53;;;17.60;99.90;;;;;;4162173;28;20062;-76
2021/06/03 01:44:45;;;;;;;9.38;7.57;;;17.50;99.90;;;;;;4161830;28;20072;-76
2021/06/03 01:46:46;;;;;;;7.05;5.97;;;17.50;99.90;;;;;;4163712;28;20029;-76
2021/06/03 01:48:48;;;;;;;6.63;5.80;;;17.50;99.90;;;;;;4162474;28;20025;-76
2021/06/03 01:50:52;;;;;;;5.82;5.32;;;17.50;99.90;;;;;;4163574;28;20477;-77
2021/06/03 01:52:53;;;;;;;6.70;5.55;;;17.50;99.90;;;;;;4163342;28;20183;-77
2021/06/03 01:54:54;;;;;;;8.82;4.82;;;17.60;99.90;;;;;;4163157;28;20037;-76
2021/06/03 01:56:55;;;;;;;5.40;4.90;;;17.70;99.90;;;;;;4161495;28;20041;-77
2021/06/03 01:58:58;;;;;;;8.55;5.25;;;17.70;99.90;;;;;;4161436;28;20522;-77
2021/06/03 02:00:59;;;;;;;8.88;5.95;;;17.80;99.90;;;;;;4163082;28;20060;-77
2021/06/03 02:03:00;;;;;;;5.97;4.70;;;17.80;99.90;;;;;;4161339;28;20084;-77
2021/06/03 02:05:01;;;;;;;6.32;5.18;;;17.70;99.90;;;;;;4162870;28;20038;-77
2021/06/03 02:07:01;;;;;;;6.90;4.70;;;17.70;99.90;;;;;;4163221;28;20036;-77
2021/06/03 02:09:04;;;;;;;6.03;4.80;;;17.80;99.90;;;;;;4163176;28;20041;-77
2021/06/03 02:11:06;;;;;;;6.95;5.22;;;17.80;99.90;;;;;;4162405;28;20068;-77
2021/06/03 02:13:24;;;;;;;5.90;5.07;;;17.80;99.90;;;;;;4161864;28;20124;-77
2021/06/03 02:15:27;;;;;;;5.90;4.82;;;17.70;99.90;;;;;;4147964;28;20084;-77
2021/06/03 02:17:34;;;;;;;;;;;17.80;99.90;;;;;;4163299;28;20095;-76
2021/06/03 02:19:55;;;;;;;4.78;4.38;;;17.70;99.90;;;;;;4162729;28;20408;-77
2021/06/03 02:21:58;;;;;;;4.93;4.32;;;17.60;99.90;;;;;;4161344;28;20033;-77
2021/06/03 02:24:01;;;;;;;6.67;4.93;;;17.60;99.90;;;;;;4162548;28;20033;-76
2021/06/03 02:26:03;;;;;;;5.70;4.88;;;17.60;99.90;;;;;;4162116;28;20504;-77
2021/06/03 02:28:04;;;;;;;7.45;4.85;;;17.50;99.90;;;;;;4162175;28;20488;-77
2021/06/03 02:30:08;;;;;;;7.82;4.60;;;17.60;99.90;;;;;;4159858;28;20076;-77
2021/06/03 02:32:09;;;;;;;6.85;4.85;;;17.50;99.90;;;;;;4161624;28;20045;-76
2021/06/03 02:34:09;;;;;;;7.28;5.13;;;17.50;99.90;;;;;;4161608;28;20132;-77
2021/06/03 02:36:10;;;;;;;7.18;4.97;;;17.40;99.90;;;;;;4160403;28;20104;-77
2021/06/03 02:38:12;;;;;;;5.20;4.68;;;17.40;99.90;;;;;;4162099;28;20032;-77
2021/06/03 02:40:24;;;;;;;6.55;5.88;;;17.40;99.90;;;;;;4160322;28;20049;-77
2021/06/03 02:42:24;;;;;;;5.95;5.07;;;17.40;99.90;;;;;;4161660;28;20028;-77
2021/06/03 02:44:25;;;;;;;7.78;5.38;;;17.30;99.90;;;;;;4161716;28;20065;-77
2021/06/03 02:46:26;;;;;;;8.48;4.88;;;17.20;99.90;;;;;;4161913;28;20044;-77
2021/06/03 02:48:27;;;;;;;6.43;5.32;;;17.10;99.90;;;;;;4161180;28;20049;-77
2021/06/03 02:50:28;;;;;;;6.75;5.30;;;17.10;99.90;;;;;;4158949;28;20029;-77
2021/06/03 02:52:30;;;;;;;6.15;4.85;;;17.00;99.90;;;;;;4162373;28;20112;-77
2021/06/03 02:54:33;;;;;;;5.43;4.90;;;16.90;99.90;;;;;;4162008;28;20116;-77
2021/06/03 02:56:33;;;;;;;6.82;4.80;;;17.00;99.90;;;;;;4162769;28;20110;-76
2021/06/03 02:58:34;;;;;;;8.25;5.30;;;16.90;99.90;;;;;;4174116;28;20033;-76
2021/06/03 03:00:36;;;;;;;6.85;4.97;;;17.10;99.90;;;;;;4159342;28;20034;-77
2021/06/03 03:02:37;;;;;;;5.78;5.15;;;17.10;99.90;;;;;;4157324;28;20037;-77
2021/06/03 03:04:37;;;;;;;7.22;5.45;;;17.20;99.90;;;;;;4157775;28;20100;-77
2021/06/03 03:06:38;;;;;;;6.05;5.20;;;17.20;99.90;;;;;;4177828;28;20044;-77
2021/06/03 03:08:39;;;;;;;8.02;5.40;;;17.10;99.90;;;;;;4159244;28;20440;-77
2021/06/03 03:10:43;;;;;;;7.80;5.72;;;17.10;99.90;;;;;;4162596;28;20026;-77
2021/06/03 03:12:44;;;;;;;7.15;5.47;;;17.00;99.90;;;;;;4162311;28;20049;-77
2021/06/03 03:14:44;;;;;;;6.53;5.70;;;17.00;99.90;;;;;;4161446;28;20072;-76
2021/06/03 03:16:45;;;;;;;8.52;5.50;;;16.90;99.90;;;;;;4161398;28;20045;-76
2021/06/03 03:18:46;;;;;;;5.80;5.20;;;16.90;99.90;;;;;;4177734;28;20138;-77
2021/06/03 03:20:47;;;;;;;7.40;5.15;;;16.90;99.90;;;;;;4161575;28;20038;-76
2021/06/03 03:22:49;;;;;;;5.85;5.35;;;16.90;99.90;;;;;;4161486;28;20362;-74
2021/06/03 03:24:49;;;;;;;5.70;5.10;;;16.80;99.90;;;;;;4162881;28;20040;-76
2021/06/03 03:26:50;;;;;;;5.57;4.97;;;16.80;99.90;;;;;;4164742;28;20037;-76
2021/06/03 03:28:50;;;;;;;7.60;5.65;;;16.80;99.90;;;;;;4165499;28;20025;-76
2021/06/03 03:30:51;;;;;;;6.47;5.18;;;16.80;99.90;;;;;;4165748;28;20034;-77
2021/06/03 03:32:52;;;;;;;6.53;5.72;;;16.90;99.90;;;;;;4165012;28;20033;-76
2021/06/03 03:34:53;;;;;;;6.18;5.55;;;17.00;99.90;;;;;;4164368;28;20068;-76
2021/06/03 03:36:54;;;;;;;8.20;5.65;;;17.00;99.90;;;;;;4165871;28;20042;-77
2021/06/03 03:38:54;;;;;;;9.23;5.18;;;17.00;99.90;;;;;;4163808;28;20114;-76
2021/06/03 03:40:55;;;;;;;9.18;5.50;;;16.90;99.90;;;;;;4180523;28;20088;-76
2021/06/03 03:42:56;;;;;;;6.65;5.22;;;16.90;99.90;;;;;;4165810;28;20033;-76
2021/06/03 03:44:57;;;;;;;7.95;5.47;;;16.80;99.90;;;;;;4165529;28;20437;-77
2021/06/03 03:46:57;;;;;;;6.13;5.53;;;16.90;99.90;;;;;;4164395;28;20040;-76
2021/06/03 03:48:58;;;;;;;7.38;5.53;;;16.90;99.90;;;;;;4165151;28;20030;-76
2021/06/03 03:50:58;;;;;;;8.80;6.65;;;17.00;99.90;;;;;;4164860;28;20060;-76
2021/06/03 03:52:59;;;;;;;6.70;5.75;;;17.00;99.90;;;;;;4162362;28;20068;-76
2021/06/03 03:55:00;;;;;;;6.82;5.53;;;17.00;99.90;;;;;;4164578;28;20041;-76
2021/06/03 03:57:04;;;;;;;5.40;4.82;;;16.90;99.90;;;;;;4164319;28;20128;-76
2021/06/03 03:59:05;;;;;;;7.45;5.35;;;16.90;99.90;;;;;;4163751;28;20408;-76
2021/06/03 04:01:05;;;;;;;12.10;6.20;;;16.90;99.90;;;;;;4164610;28;20037;-76
2021/06/03 04:03:06;;;;;;;6.38;5.78;;;17.00;99.90;;;;;;4162356;28;20047;-76
2021/06/03 04:05:07;;;;;;;6.60;5.90;;;16.90;99.90;;;;;;4164084;28;20427;-76
2021/06/03 04:07:08;;;;;;;8.10;5.82;;;16.90;99.90;;;;;;4163636;28;20037;-77
2021/06/03 04:09:08;;;;;;;5.75;5.20;;;16.90;99.90;;;;;;4160107;28;20124;-75
2021/06/03 04:11:09;;;;;;;9.43;5.80;;;16.90;99.90;;;;;;4161588;28;20091;-76
2021/06/03 04:13:10;;;;;;;7.97;5.80;;;17.00;99.90;;;;;;4163995;28;20468;-76
2021/06/03 04:15:12;;;;;;;9.18;5.90;;;17.10;99.90;;;;;;4164030;28;20027;-76
2021/06/03 04:17:13;;;;;;;13.68;6.82;;;17.10;99.90;;;;;;4163885;28;20060;-76
2021/06/03 04:19:14;;;;;;;7.50;6.32;;;17.10;99.90;;;;;;4162728;28;20034;-76
2021/06/03 04:21:14;;;;;;;7.25;6.25;;;17.10;99.90;;;;;;4163883;28;20034;-76
2021/06/03 04:23:15;;;;;;;9.65;6.80;;;17.10;99.90;;;;;;4163385;28;20108;-76
2021/06/03 04:25:16;;;;;;;9.25;6.88;;;17.10;99.90;;;;;;4162201;28;20034;-76
2021/06/03 04:27:17;;;;;;;9.05;6.90;;;17.10;99.90;;;;;;4163122;28;20519;-76
2021/06/03 04:29:18;;;;;;;9.65;6.47;;;17.20;99.90;;;;;;4163080;28;20447;-76
2021/06/03 04:31:19;;;;;;;7.30;6.50;;;17.20;99.90;;;;;;4160101;28;20049;-76
2021/06/03 04:33:22;;;;;;;9.25;6.38;;;17.20;99.90;;;;;;4161516;28;20385;-77
2021/06/03 04:35:24;;;;;;;7.95;6.57;;;17.30;99.90;;;;;;4162612;28;20032;-76
2021/06/03 04:37:26;;;;;;;10.20;6.63;;;17.30;99.90;;;;;;4151799;28;20040;-77
2021/06/03 04:39:27;;;;;;;9.43;7.43;;;17.30;99.90;;;;;;4175578;28;20060;-76
2021/06/03 04:41:28;;;;;;;7.40;6.53;;;17.30;99.90;;;;;;4163104;28;20032;-77
2021/06/03 04:43:29;;;;;;;12.38;6.93;;;17.30;99.90;;;;;;4160428;28;20025;-77
2021/06/03 04:45:34;;;;;;;7.97;6.65;;;17.30;99.90;;;;;;4178825;28;20040;-76
2021/06/03 04:47:35;;;;;;;7.65;6.95;;;17.30;99.90;;;;;;4162241;28;20030;-77
2021/06/03 04:49:35;;;;;;;12.75;7.60;;;17.30;99.90;;;;;;4163296;28;20037;-77
2021/06/03 04:51:38;;;;;;;10.73;7.00;;;17.30;99.90;;;;;;4161362;28;20033;-77
2021/06/03 04:53:39;;;;;;;8.43;7.63;;;17.40;99.90;;;;;;4161532;28;20081;-77
2021/06/03 04:55:40;;;;;;;9.35;7.63;;;17.50;99.90;;;;;;4158726;28;20030;-77
2021/06/03 04:57:41;;;;;;;11.90;8.15;;;17.70;99.90;;;;;;4160554;28;20456;-76
2021/06/03 04:59:43;;;;;;;8.63;7.80;;;17.80;99.90;;;;;;4162592;28;20401;-77
2021/06/03 05:01:43;;;;;;;9.35;7.60;;;18.00;99.90;;;;;;4163703;28;20028;-77
2021/06/03 05:03:44;;;;;;;8.63;7.72;;;18.10;99.90;;;;;;4161433;28;20448;-76
2021/06/03 05:05:45;;;;;;;11.18;8.05;;;18.30;99.90;;;;;;4163228;28;20063;-77
2021/06/03 05:07:46;;;;;;;12.65;8.82;;;18.40;99.90;;;;;;4163578;28;20041;-77
2021/06/03 05:09:47;;;;;;;11.73;8.85;;;18.60;99.90;;;;;;4155244;28;20117;-77
2021/06/03 05:11:48;;;;;;;10.75;8.98;;;18.70;99.90;;;;;;4163092;28;20048;-77
2021/06/03 05:13:49;;;;;;;11.88;8.00;;;18.80;99.90;;;;;;4162847;28;20423;-77
2021/06/03 05:15:50;;;;;;;13.10;8.80;;;18.90;99.90;;;;;;4164129;28;20025;-76
2021/06/03 05:17:52;;;;;;;9.55;8.55;;;18.90;99.90;;;;;;4163925;28;20112;-77
2021/06/03 05:19:53;;;;;;;12.15;8.93;;;19.00;99.90;;;;;;4163485;28;20029;-77
2021/06/03 05:21:54;;;;;;;9.52;8.48;;;19.00;99.90;;;;;;4164219;28;20094;-77
2021/06/03 05:23:54;;;;;;;12.18;8.52;;;19.00;99.90;;;;;;4162804;28;20392;-76
2021/06/03 05:25:55;;;;;;;10.55;9.45;;;19.10;99.90;;;;;;4163797;28;20037;-77
2021/06/03 05:27:56;;;;;;;9.20;8.30;;;19.20;99.90;;;;;;4162491;28;20381;-76
2021/06/03 05:29:57;;;;;;;11.38;8.25;;;19.20;99.90;;;;;;4163776;28;20064;-77
2021/06/03 05:31:57;;;;;;;11.20;8.20;;;19.20;99.90;;;;;;4162701;28;20037;-76
2021/06/03 05:33:58;;;;;;;9.68;8.18;;;19.30;99.90;;;;;;4162038;28;20247;-76
2021/06/03 05:35:59;;;;;;;15.30;8.73;;;19.30;99.90;;;;;;4179001;28;20033;-76
2021/06/03 05:38:00;;;;;;;9.43;8.52;;;19.40;99.90;;;;;;4163813;28;20041;-76
2021/06/03 05:40:02;;;;;;;9.57;8.55;;;19.40;99.90;;;;;;4163428;28;20030;-77
2021/06/03 05:42:04;;;;;;;10.17;8.97;;;19.30;99.90;;;;;;4161910;28;20403;-76
2021/06/03 05:44:07;;;;;;;9.50;8.13;;;19.40;99.90;;;;;;4163384;28;20360;-77
2021/06/03 05:46:08;;;;;;;9.68;8.68;;;19.40;99.90;;;;;;4163356;28;20021;-74
2021/06/03 05:48:08;;;;;;;11.02;9.90;;;19.40;99.90;;;;;;4161486;28;20470;-76
2021/06/03 05:50:11;;;;;;;13.63;9.48;;;19.50;99.90;;;;;;4162360;28;20029;-74
2021/06/03 05:52:12;;;;;;;9.50;8.60;;;19.50;99.90;;;;;;4162522;28;20111;-76
2021/06/03 05:54:13;;;;;;;10.35;9.35;;;19.50;99.90;;;;;;4157606;28;20022;-76
2021/06/03 05:56:13;;;;;;;11.95;9.25;;;19.60;99.90;;;;;;4162388;28;20025;-75
2021/06/03 05:58:14;;;;;;;13.25;9.55;;;19.60;99.90;;;;;;4162125;28;20026;-76
2021/06/03 06:00:18;;;;;;;15.73;11.13;;;19.50;99.90;;;;;;4163135;28;20373;-75
2021/06/03 06:02:25;;;;;;;10.05;8.93;;;19.50;99.90;;;;;;4161107;28;20030;-76
2021/06/03 06:06:26;;;;;;;10.90;9.80;;;19.30;99.90;;;;;;4161874;28;20049;-75
2021/06/03 06:08:27;;;;;;;13.40;10.95;;;19.30;99.90;;;;;;4162333;28;20030;-76
2021/06/03 06:10:28;;;;;;;11.30;10.20;;;19.20;99.90;;;;;;4162756;28;20365;-76
2021/06/03 06:12:29;;;;;;;12.23;10.25;;;19.10;99.90;;;;;;4161985;28;20056;-76
2021/06/03 06:14:29;;;;;;;16.17;12.18;;;19.20;99.90;;;;;;4161623;28;20029;-75
2021/06/03 06:16:31;;;;;;;12.68;10.45;;;19.20;99.90;;;;;;4158466;28;20113;-75
2021/06/03 06:18:31;;;;;;;12.65;11.00;;;19.20;99.90;;;;;;4161334;28;20024;-75
2021/06/03 06:20:34;;;;;;;13.38;11.40;;;19.40;99.90;;;;;;4161552;28;20419;-75
2021/06/03 06:22:35;;;;;;;13.47;11.63;;;19.50;99.90;;;;;;4178072;28;20564;-76
2021/06/03 06:24:37;;;;;;;12.65;11.30;;;19.70;99.90;;;;;;4173364;28;20334;-74
2021/06/03 06:26:38;;;;;;;13.07;11.52;;;19.80;99.90;;;;;;4160026;28;20029;-75
2021/06/03 06:28:40;;;;;;;12.93;10.38;;;19.90;99.90;;;;;;4156061;28;20049;-75
2021/06/03 06:30:42;;;;;;;13.20;11.67;;;19.90;99.90;;;;;;4158931;28;20053;-76
2021/06/03 06:32:42;;;;;;;15.90;10.98;;;20.00;99.90;;;;;;4161902;28;20964;-76
2021/06/03 06:34:43;;;;;;;13.25;11.95;;;20.10;99.90;;;;;;4160817;28;20116;-75
2021/06/03 06:36:44;;;;;;;13.95;11.50;;;20.20;99.90;;;;;;4160393;28;20120;-75
2021/06/03 06:38:45;;;;;;;14.05;12.32;;;20.30;99.90;;;;;;4159844;28;20045;-75
2021/06/03 06:40:47;;;;;;;13.95;11.27;;;20.30;99.90;;;;;;4160783;28;20459;-75
2021/06/03 06:42:53;;;;;;;15.65;12.80;;;20.40;99.90;;;;;;4162295;28;20111;-75
2021/06/03 06:44:54;;;;;;;12.65;11.20;;;20.50;99.90;;;;;;4160004;28;20526;-75
2021/06/03 06:46:55;;;;;;;15.27;11.88;;;20.70;99.90;;;;;;4163239;28;20037;-75
2021/06/03 06:48:56;;;;;;;14.63;12.98;;;20.70;99.90;;;;;;4162482;28;20037;-75
2021/06/03 06:50:57;;;;;;;15.32;12.32;;;20.70;99.90;;;;;;4162311;28;20413;-75
2021/06/03 06:52:58;;;;;;;14.05;11.75;;;20.70;99.90;;;;;;4161058;28;20412;-75
2021/06/03 06:54:59;;;;;;;13.68;11.65;;;20.90;99.90;;;;;;4162077;28;20172;-75
2021/06/03 06:56:59;;;;;;;17.88;12.70;;;21.00;99.90;;;;;;4160832;28;20056;-76
2021/06/03 06:59:00;;;;;;;12.80;11.48;;;21.10;99.90;;;;;;4159295;28;20045;-75
2021/06/03 07:01:02;;;;;;;14.52;13.07;;;21.20;99.90;;;;;;4161569;28;20029;-75
2021/06/03 07:03:03;;;;;;;14.27;12.30;;;21.30;99.90;;;;;;4164897;28;20116;-75
2021/06/03 07:05:09;;;;;;;13.20;11.80;;;21.30;99.90;;;;;;4178353;28;20060;-75
2021/06/03 07:07:09;;;;;;;13.35;11.93;;;21.40;99.90;;;;;;4164011;28;20025;-75
2021/06/03 07:09:10;;;;;;;14.18;12.77;;;21.60;99.90;;;;;;4165377;28;20438;-75
2021/06/03 07:11:11;;;;;;;13.90;11.88;;;21.60;99.90;;;;;;4165511;28;20040;-75
2021/06/03 07:13:12;;;;;;;12.73;11.15;;;21.60;99.90;;;;;;4164611;28;20060;-76
2021/06/03 07:15:14;;;;;;;14.85;12.75;;;21.70;99.90;;;;;;4163743;28;20084;-75
2021/06/03 07:17:16;;;;;;;12.25;10.55;;;21.80;99.90;;;;;;4164871;28;20480;-75
2021/06/03 07:19:17;;;;;;;11.45;10.35;;;21.80;99.90;;;;;;4161989;28;20025;-75
2021/06/03 07:21:18;;;;;;;13.95;11.85;;;21.90;99.90;;;;;;4164638;28;20064;-75
2021/06/03 07:23:21;;;;;;;18.30;10.95;;;22.00;99.90;;;;;;4177997;28;20036;-75
2021/06/03 07:25:24;;;;;;;12.63;11.45;;;22.10;99.90;;;;;;4160820;28;20042;-75
2021/06/03 07:27:25;;;;;;;14.25;11.65;;;22.40;99.90;;;;;;4160764;28;20036;-75
2021/06/03 07:29:26;;;;;;;12.43;11.10;;;22.80;99.90;;;;;;4164939;28;20457;-75
2021/06/03 07:31:26;;;;;;;13.25;11.75;;;22.90;99.90;;;;;;4165173;28;20049;-75
2021/06/03 07:33:27;;;;;;;12.20;10.82;;;23.10;99.90;;;;;;4165471;28;20053;-76
2021/06/03 07:35:29;;;;;;;11.50;10.40;;;23.10;99.90;;;;;;4165225;28;20021;-75
2021/06/03 07:37:29;;;;;;;12.05;10.77;;;23.30;99.90;;;;;;4161956;28;20033;-76
2021/06/03 07:39:30;;;;;;;11.82;10.77;;;23.50;99.90;;;;;;4161577;28;20431;-75
2021/06/03 07:41:31;;;;;;;15.13;10.63;;;23.70;99.90;;;;;;4163209;28;20377;-75
2021/06/03 07:43:32;;;;;;;13.32;10.43;;;23.90;99.90;;;;;;4162526;28;20018;-76
2021/06/03 07:45:33;;;;;;;12.52;11.20;;;24.00;99.90;;;;;;4161109;28;20040;-75
2021/06/03 07:47:35;;;;;;;11.70;9.63;;;24.40;99.90;;;;;;4162529;28;20057;-76
2021/06/03 07:49:36;;;;;;;11.23;10.00;;;24.60;99.90;;;;;;4159294;28;20774;-76
2021/06/03 07:51:36;;;;;;;11.48;10.48;;;24.90;99.90;;;;;;4164769;28;20022;-76
2021/06/03 07:53:38;;;;;;;11.07;9.95;;;25.10;99.90;;;;;;4164283;28;20079;-75
2021/06/03 07:55:40;;;;;;;10.77;9.77;;;25.20;99.90;;;;;;4163346;28;20037;-75
2021/06/03 07:57:42;;;;;;;12.50;11.25;;;25.20;99.90;;;;;;4178813;28;20033;-76
2021/06/03 07:59:43;;;;;;;10.27;9.35;;;25.00;99.90;;;;;;4161707;28;20033;-75
2021/06/03 08:01:44;;;;;;;11.13;10.13;;;24.80;99.90;;;;;;4163339;28;20519;-75
2021/06/03 08:03:45;;;;;;;11.27;10.15;;;24.70;99.90;;;;;;4164567;28;20037;-76
2021/06/03 08:05:46;;;;;;;11.52;10.32;;;24.70;99.90;;;;;;4164546;28;20399;-75
2021/06/03 08:07:48;;;;;;;12.13;10.95;;;24.50;99.90;;;;;;4164611;28;20058;-76
2021/06/03 08:09:49;;;;;;;10.47;9.47;;;24.50;99.90;;;;;;4163786;28;20033;-76
2021/06/03 08:11:49;;;;;;;10.57;9.57;;;24.50;99.90;;;;;;4162916;28;20284;-75
2021/06/03 08:13:50;;;;;;;12.80;10.75;;;24.60;99.90;;;;;;4162565;28;20042;-75
2021/06/03 08:15:50;;;;;;;12.85;11.25;;;24.60;99.90;;;;;;4164250;28;20022;-75
2021/06/03 08:17:53;;;;;;;11.30;9.77;;;24.60;99.90;;;;;;4165690;28;20033;-75
2021/06/03 08:19:53;;;;;;;14.50;10.40;;;24.50;99.90;;;;;;4163883;28;20424;-75
2021/06/03 08:21:54;;;;;;;11.63;9.63;;;24.50;99.90;;;;;;4161203;28;20033;-75
2021/06/03 08:23:55;;;;;;;10.48;9.48;;;24.60;99.90;;;;;;4162756;28;20022;-75
2021/06/03 08:25:57;;;;;;;12.75;10.63;;;24.60;99.90;;;;;;4163983;28;20053;-75
2021/06/03 08:27:59;;;;;;;12.73;10.32;;;24.60;99.90;;;;;;4163038;28;20048;-75
2021/06/03 08:30:00;;;;;;;10.30;9.30;;;24.70;99.90;;;;;;4156690;28;20041;-75
2021/06/03 08:32:00;;;;;;;11.70;10.60;;;24.60;99.90;;;;;;4162797;28;20057;-75
2021/06/03 08:34:03;;;;;;;11.88;10.55;;;24.30;99.90;;;;;;4162968;28;20500;-75
2021/06/03 08:36:04;;;;;;;11.25;10.20;;;24.30;99.90;;;;;;4164158;28;20496;-75
2021/06/03 08:38:08;;;;;;;12.75;11.52;;;24.30;99.90;;;;;;4164534;28;20026;-75
2021/06/03 08:40:10;;;;;;;12.23;11.13;;;24.70;99.90;;;;;;4163084;28;20037;-74
2021/06/03 08:42:13;;;;;;;11.18;10.07;;;25.00;99.90;;;;;;4163137;28;20029;-75
2021/06/03 08:44:14;;;;;;;10.45;9.45;;;25.20;99.90;;;;;;4164202;28;20029;-76
2021/06/03 08:46:15;;;;;;;8.93;8.02;;;25.40;99.90;;;;;;4163967;28;20021;-74
2021/06/03 08:48:16;;;;;;;14.98;9.23;;;25.70;99.90;;;;;;4161096;28;20032;-74
2021/06/03 08:50:17;;;;;;;7.68;6.97;;;26.00;99.90;;;;;;4162872;28;20037;-74
2021/06/03 08:52:18;;;;;;;7.72;6.47;;;26.00;99.90;;;;;;4172652;28;20068;-75
2021/06/03 08:54:19;;;;;;;11.80;8.43;;;26.30;99.90;;;;;;4162052;28;20037;-75
2021/06/03 08:56:20;;;;;;;8.10;7.05;;;26.30;99.90;;;;;;4159767;28;20022;-74
2021/06/03 08:58:23;;;;;;;6.63;6.00;;;26.20;99.90;;;;;;4162524;28;20046;-75
2021/06/03 09:00:24;;;;;;;8.35;7.55;;;26.30;99.90;;;;;;4163797;28;20774;-75
2021/06/03 09:02:25;;;;;;;8.07;6.57;;;26.40;99.90;;;;;;4163350;28;20029;-74
2021/06/03 09:04:26;;;;;;;8.57;7.55;;;26.60;99.90;;;;;;4158910;28;20112;-75
2021/06/03 09:06:27;;;;;;;7.40;6.20;;;26.50;99.90;;;;;;4151988;28;20034;-75
2021/06/03 09:08:41;;;;;;;8.18;6.38;;;26.40;99.90;;;;;;4160427;28;20108;-75
2021/06/03 09:10:43;;;;;;;9.15;7.35;;;26.60;99.90;;;;;;4161270;28;20045;-75
2021/06/03 09:13:34;;;;;;;7.68;6.97;;;26.60;99.90;;;;;;4160682;28;20064;-74
2021/06/03 09:15:36;;;;;;;7.60;6.82;;;27.00;99.90;;;;;;4142964;28;20048;-74
2021/06/03 09:17:47;;;;;;;7.32;6.60;;;27.30;99.90;;;;;;4164494;28;20056;-75
2021/06/03 09:19:52;;;;;;;9.38;6.30;;;27.70;99.90;;;;;;4160959;28;20060;-74
2021/06/03 09:21:53;;;;;;;8.77;7.40;;;27.70;99.90;;;;;;4163144;28;20138;-74
2021/06/03 09:24:05;;;;;;;7.82;7.13;;;27.60;99.90;;;;;;4161198;28;20049;-74
2021/06/03 09:26:17;;;;;;;8.93;8.02;;;27.90;99.90;;;;;;4159673;28;20030;-74
2021/06/03 09:28:37;;;;;;;7.45;6.38;;;28.10;99.90;;;;;;4160508;28;20146;-74
2021/06/03 09:30:53;;;;;;;7.10;6.28;;;28.20;99.90;;;;;;4162317;28;20499;-74
2021/06/03 09:32:54;;;;;;;7.40;6.10;;;28.10;99.90;;;;;;4159968;28;20033;-74
2021/06/03 09:34:56;;;;;;;8.38;6.72;;;28.10;99.90;;;;;;4161599;28;20032;-74
2021/06/03 09:37:02;;;;;;;6.55;5.95;;;28.10;99.90;;;;;;4163096;28;20038;-76
2021/06/03 09:39:10;;;;;;;6.22;5.63;;;28.20;99.90;;;;;;4161983;28;20033;-74
2021/06/03 09:41:11;;;;;;;8.80;5.65;;;28.60;99.90;;;;;;4159272;28;20041;-74
2021/06/03 09:43:12;;;;;;;10.50;7.57;;;29.10;99.90;;;;;;4158600;28;20103;-74
2021/06/03 09:45:12;;;;;;;7.65;6.63;;;29.30;99.90;;;;;;4166507;28;20057;-74
2021/06/03 09:47:15;;;;;;;8.25;6.40;;;29.40;99.90;;;;;;4158554;28;20752;-75
2021/06/03 09:49:25;;;;;;;8.05;6.85;;;29.60;99.90;;;;;;4157506;28;20457;-74
2021/06/03 09:51:28;;;;;;;8.93;7.82;;;29.60;99.90;;;;;;4160641;28;20563;-74
2021/06/03 09:54:03;;;;;;;8.00;7.20;;;29.00;99.90;;;;;;4175298;28;20041;-74
2021/06/03 09:56:34;;;;;;;9.30;8.38;;;28.90;99.90;;;;;;4140071;28;20047;-75
2021/06/03 09:58:38;;;;;;;9.20;8.27;;;28.90;99.90;;;;;;4159527;28;20088;-74
2021/06/03 10:00:46;;;;;;;11.48;9.02;;;28.70;99.90;;;;;;4158663;28;20029;-75
2021/06/03 10:02:53;;;;;;;10.52;9.52;;;28.10;99.90;;;;;;4161387;28;20111;-75
2021/06/03 10:04:54;;;;;;;9.60;8.60;;;27.80;99.90;;;;;;4172432;28;20036;-74
2021/06/03 10:07:24;;;;;;;9.82;8.77;;;27.40;99.90;;;;;;4158229;28;20021;-74
2021/06/03 10:09:40;;;;;;;10.05;9.05;;;27.30;99.90;;;;;;4159104;28;20396;-75
2021/06/03 10:11:46;;;;;;;10.35;9.40;;;27.10;99.90;;;;;;4156774;28;20034;-74
2021/06/03 10:14:13;;;;;;;11.77;9.07;;;27.20;99.90;;;;;;4151717;28;20116;-74
2021/06/03 10:16:32;;;;;;;12.57;9.60;;;27.50;99.90;;;;;;4160256;28;20033;-75
2021/06/03 10:18:32;;;;;;;10.57;9.35;;;27.70;99.90;;;;;;4157959;28;20488;-74
2021/06/03 10:20:36;;;;;;;11.88;8.38;;;28.00;99.90;;;;;;4161948;28;20025;-74
2021/06/03 10:22:40;;;;;;;10.30;9.27;;;28.20;99.90;;;;;;4161307;28;20515;-75
2021/06/03 10:24:58;;;;;;;10.68;9.68;;;28.20;99.90;;;;;;4162811;28;20022;-75
2021/06/03 10:26:59;;;;;;;10.88;9.70;;;28.20;99.90;;;;;;4161061;28;20072;-75
2021/06/03 10:29:00;;;;;;;11.77;9.85;;;28.60;99.90;;;;;;4155406;28;20381;-75
2021/06/03 10:31:08;;;;;;;12.63;11.30;;;29.20;99.90;;;;;;4162146;28;20121;-75
2021/06/03 10:33:12;;;;;;;11.63;10.48;;;29.60;99.90;;;;;;4163145;28;20116;-76
2021/06/03 10:35:17;;;;;;;11.55;10.38;;;29.40;99.90;;;;;;4160803;28;20034;-75
2021/06/03 10:37:19;;;;;;;10.98;9.98;;;28.80;99.90;;;;;;4150112;28;20052;-74